createdAt,value
2023-04-15T00:00:26.121Z,94015.00
2023-04-15T00:01:26.105Z,94013.00
2023-04-15T00:02:26.345Z,94015.00
2023-04-15T00:03:26.332Z,94015.00
2023-04-15T00:04:26.257Z,94017.00
2023-04-15T00:05:26.149Z,94017.00
2023-04-15T00:06:26.173Z,94017.00
2023-04-15T00:07:27.089Z,94017.00
2023-04-15T00:08:26.180Z,94015.00
2023-04-15T00:09:26.193Z,94013.00
2023-04-15T00:10:26.220Z,94013.00
2023-04-15T00:11:26.192Z,94011.00
2023-04-15T00:12:26.243Z,94009.00
2023-04-15T00:13:26.216Z,94011.00
2023-04-15T00:14:26.211Z,94013.00
2023-04-15T00:15:26.228Z,94013.00
2023-04-15T00:16:26.277Z,94013.00
2023-04-15T00:17:26.328Z,94015.00
2023-04-15T00:18:26.240Z,94013.00
2023-04-15T00:19:26.262Z,94015.00
2023-04-15T00:20:26.307Z,94013.00
2023-04-15T00:21:26.290Z,94013.00
2023-04-15T00:22:26.343Z,94011.00
2023-04-15T00:23:26.316Z,94009.00
2023-04-15T00:24:26.358Z,94007.00
2023-04-15T00:25:26.381Z,94005.00
2023-04-15T00:26:26.334Z,94003.00
2023-04-15T00:27:26.362Z,94003.00
2023-04-15T00:28:26.395Z,94003.00
2023-04-15T00:29:26.427Z,94003.00
2023-04-15T00:30:26.413Z,94003.00
2023-04-15T00:31:26.466Z,94005.00
2023-04-15T00:32:26.479Z,94005.00
2023-04-15T00:33:26.473Z,94005.00
2023-04-15T00:34:26.452Z,94005.00
2023-04-15T00:35:26.503Z,94003.00
2023-04-15T00:36:26.486Z,94003.00
2023-04-15T00:37:26.496Z,94005.00
2023-04-15T00:38:26.481Z,94003.00
2023-04-15T00:39:26.527Z,94005.00
2023-04-15T00:40:26.614Z,94005.00
2023-04-15T00:41:26.595Z,94007.00
2023-04-15T00:42:26.553Z,94007.00
2023-04-15T00:43:26.652Z,94007.00
2023-04-15T00:44:26.589Z,94009.00
2023-04-15T00:45:26.597Z,94005.00
2023-04-15T00:46:26.640Z,94005.00
2023-04-15T00:47:26.670Z,94001.00
2023-04-15T00:48:26.649Z,93999.00
2023-04-15T00:49:26.654Z,93999.00
2023-04-15T00:50:26.660Z,93999.00
2023-04-15T00:51:26.711Z,94003.00
2023-04-15T00:52:26.717Z,94001.00
2023-04-15T00:53:26.750Z,94003.00
2023-04-15T00:54:26.707Z,94001.00
2023-04-15T00:55:26.745Z,94003.00
2023-04-15T00:56:26.755Z,94003.00
2023-04-15T00:57:26.752Z,94001.00
2023-04-15T00:58:26.766Z,94003.00
2023-04-15T00:59:26.774Z,94005.00
2023-04-15T01:00:26.876Z,94003.00
2023-04-15T01:01:26.851Z,94005.00
2023-04-15T01:02:26.924Z,94007.00
2023-04-15T01:03:27.020Z,94005.00
2023-04-15T01:04:26.935Z,94003.00
2023-04-15T01:05:26.865Z,94003.00
2023-04-15T01:06:26.863Z,94001.00
2023-04-15T01:07:26.847Z,94003.00
2023-04-15T01:08:26.876Z,94003.00
2023-04-15T01:09:26.959Z,94003.00
2023-04-15T01:10:26.905Z,94003.00
2023-04-15T01:11:26.893Z,94003.00
2023-04-15T01:12:26.935Z,94003.00
2023-04-15T01:13:26.949Z,94003.00
2023-04-15T01:14:26.962Z,94003.00
2023-04-15T01:15:26.989Z,94003.00
2023-04-15T01:16:27.003Z,94003.00
2023-04-15T01:17:27.030Z,94003.00
2023-04-15T01:18:26.987Z,94003.00
2023-04-15T01:19:26.985Z,94005.00
2023-04-15T01:20:27.012Z,94005.00
2023-04-15T01:21:27.034Z,94007.00
2023-04-15T01:22:27.037Z,94007.00
2023-04-15T01:23:27.051Z,94007.00
2023-04-15T01:24:27.076Z,94007.00
2023-04-15T01:25:27.092Z,94009.00
2023-04-15T01:26:27.080Z,94011.00
2023-04-15T01:27:27.166Z,94011.00
2023-04-15T01:28:27.104Z,94013.00
2023-04-15T01:29:27.104Z,94013.00
2023-04-15T01:30:27.179Z,94013.00
2023-04-15T01:31:27.247Z,94009.00
2023-04-15T01:32:27.348Z,94009.00
2023-04-15T01:33:27.198Z,94009.00
2023-04-15T01:34:27.263Z,94007.00
2023-04-15T01:35:27.260Z,94007.00
2023-04-15T01:36:27.268Z,94005.00
2023-04-15T01:37:27.306Z,94007.00
2023-04-15T01:38:27.322Z,94005.00
2023-04-15T01:39:27.344Z,94007.00
2023-04-15T01:40:27.374Z,94007.00
2023-04-15T01:41:27.391Z,94009.00
2023-04-15T01:42:27.435Z,94009.00
2023-04-15T01:43:27.437Z,94011.00
2023-04-15T01:44:27.482Z,94011.00
2023-04-15T01:45:27.514Z,94013.00
2023-04-15T01:46:27.563Z,94011.00
2023-04-15T01:47:27.583Z,94011.00
2023-04-15T01:48:27.568Z,94005.00
2023-04-15T01:49:27.607Z,94005.00
2023-04-15T01:50:27.642Z,94009.00
2023-04-15T01:51:27.631Z,94005.00
2023-04-15T01:52:27.652Z,94007.00
2023-04-15T01:53:27.684Z,94005.00
2023-04-15T01:54:27.712Z,94009.00
2023-04-15T01:55:27.736Z,94007.00
2023-04-15T01:56:27.729Z,94009.00
2023-04-15T01:57:27.788Z,94009.00
2023-04-15T01:58:27.809Z,94009.00
2023-04-15T01:59:27.837Z,94005.00
2023-04-15T02:00:27.834Z,94005.00
2023-04-15T02:01:27.988Z,94005.00
2023-04-15T02:02:27.928Z,94007.00
2023-04-15T02:03:28.029Z,94007.00
2023-04-15T02:04:27.916Z,94005.00
2023-04-15T02:05:27.957Z,94005.00
2023-04-15T02:06:27.994Z,94003.00
2023-04-15T02:07:27.971Z,94003.00
2023-04-15T02:08:27.991Z,94003.00
2023-04-15T02:09:28.058Z,94001.00
2023-04-15T02:10:28.042Z,94003.00
2023-04-15T02:11:28.101Z,94005.00
2023-04-15T02:12:28.097Z,94005.00
2023-04-15T02:13:28.134Z,94007.00
2023-04-15T02:14:28.196Z,94007.00
2023-04-15T02:15:28.214Z,94009.00
2023-04-15T02:16:28.265Z,94007.00
2023-04-15T02:17:28.258Z,94009.00
2023-04-15T02:18:28.286Z,94009.00
2023-04-15T02:19:28.275Z,94007.00
2023-04-15T02:20:28.314Z,94009.00
2023-04-15T02:21:28.339Z,94011.00
2023-04-15T02:22:28.363Z,94013.00
2023-04-15T02:23:28.397Z,94013.00
2023-04-15T02:24:28.408Z,94013.00
2023-04-15T02:25:28.447Z,94011.00
2023-04-15T02:26:28.461Z,94009.00
2023-04-15T02:27:28.482Z,94009.00
2023-04-15T02:28:28.471Z,94009.00
2023-04-15T02:29:28.536Z,94007.00
2023-04-15T02:30:28.545Z,94005.00
2023-04-15T02:31:28.623Z,93999.00
2023-04-15T02:32:28.591Z,93999.00
2023-04-15T02:33:28.610Z,94007.00
2023-04-15T02:34:28.615Z,94005.00
2023-04-15T02:35:28.664Z,94001.00
2023-04-15T02:36:28.669Z,94001.00
2023-04-15T02:37:28.713Z,94007.00
2023-04-15T02:38:28.728Z,94005.00
2023-04-15T02:39:28.734Z,94011.00
2023-04-15T02:40:28.761Z,94007.00
2023-04-15T02:41:28.797Z,94003.00
2023-04-15T02:42:28.831Z,94001.00
2023-04-15T02:43:28.817Z,94003.00
2023-04-15T02:44:28.882Z,94003.00
2023-04-15T02:45:28.878Z,93995.00
2023-04-15T02:46:28.977Z,94001.00
2023-04-15T02:47:28.939Z,93999.00
2023-04-15T02:48:28.938Z,94005.00
2023-04-15T02:49:29.003Z,94001.00
2023-04-15T02:50:28.989Z,93999.00
2023-04-15T02:51:29.056Z,93999.00
2023-04-15T02:52:29.049Z,94001.00
2023-04-15T02:53:29.072Z,94001.00
2023-04-15T02:54:29.122Z,93999.00
2023-04-15T02:55:29.134Z,93999.00
2023-04-15T02:56:29.150Z,93999.00
2023-04-15T02:57:29.196Z,94001.00
2023-04-15T02:58:29.169Z,94001.00
2023-04-15T02:59:29.224Z,94001.00
2023-04-15T03:00:29.481Z,94001.00
2023-04-15T03:01:29.266Z,93999.00
2023-04-15T03:02:29.375Z,93999.00
2023-04-15T03:03:29.368Z,93999.00
2023-04-15T03:04:29.316Z,93999.00
2023-04-15T03:05:29.315Z,93999.00
2023-04-15T03:06:29.366Z,94001.00
2023-04-15T03:07:29.386Z,93999.00
2023-04-15T03:08:29.399Z,94001.00
2023-04-15T03:09:29.393Z,94001.00
2023-04-15T03:10:29.465Z,94003.00
2023-04-15T03:11:29.430Z,94005.00
2023-04-15T03:12:29.458Z,94003.00
2023-04-15T03:13:29.481Z,94007.00
2023-04-15T03:14:29.490Z,94005.00
2023-04-15T03:15:29.549Z,94007.00
2023-04-15T03:16:29.565Z,94007.00
2023-04-15T03:17:29.607Z,94007.00
2023-04-15T03:18:29.582Z,94003.00
2023-04-15T03:19:29.629Z,94005.00
2023-04-15T03:20:29.670Z,94003.00
2023-04-15T03:21:29.682Z,94003.00
2023-04-15T03:22:29.723Z,93999.00
2023-04-15T03:23:29.756Z,94001.00
2023-04-15T03:24:29.788Z,93999.00
2023-04-15T03:25:29.786Z,94001.00
2023-04-15T03:26:29.820Z,94001.00
2023-04-15T03:27:29.828Z,93997.00
2023-04-15T03:28:29.864Z,94001.00
2023-04-15T03:29:29.890Z,94001.00
2023-04-15T03:30:29.937Z,93997.00
2023-04-15T03:31:29.952Z,93997.00
2023-04-15T03:32:29.983Z,93999.00
2023-04-15T03:33:29.982Z,93997.00
2023-04-15T03:34:29.995Z,93997.00
2023-04-15T03:35:29.998Z,93999.00
2023-04-15T03:36:30.086Z,93995.00
2023-04-15T03:37:30.085Z,93999.00
2023-04-15T03:38:30.105Z,93999.00
2023-04-15T03:39:30.116Z,93999.00
2023-04-15T03:40:30.141Z,94001.00
2023-04-15T03:41:30.187Z,94001.00
2023-04-15T03:42:30.213Z,94001.00
2023-04-15T03:43:30.223Z,94003.00
2023-04-15T03:44:30.258Z,94003.00
2023-04-15T03:45:30.295Z,94005.00
2023-04-15T03:46:30.404Z,94003.00
2023-04-15T03:47:30.384Z,94001.00
2023-04-15T03:48:30.344Z,94003.00
2023-04-15T03:49:30.372Z,94001.00
2023-04-15T03:50:30.433Z,94003.00
2023-04-15T03:51:30.456Z,94005.00
2023-04-15T03:52:30.510Z,94003.00
2023-04-15T03:53:30.524Z,94005.00
2023-04-15T03:54:30.544Z,94003.00
2023-04-15T03:55:30.570Z,94003.00
2023-04-15T03:56:30.585Z,94007.00
2023-04-15T03:57:30.616Z,94005.00
2023-04-15T03:58:30.662Z,94007.00
2023-04-15T03:59:30.668Z,94005.00
2023-04-15T04:00:30.692Z,94005.00
2023-04-15T04:01:30.780Z,94003.00
2023-04-15T04:02:30.816Z,94005.00
2023-04-15T04:03:30.877Z,94007.00
2023-04-15T04:04:30.991Z,94007.00
2023-04-15T04:05:30.836Z,94007.00
2023-04-15T04:06:30.870Z,94007.00
2023-04-15T04:07:30.929Z,94011.00
2023-04-15T04:08:30.940Z,94011.00
2023-04-15T04:09:30.952Z,94011.00
2023-04-15T04:10:31.093Z,94011.00
2023-04-15T04:11:31.022Z,94013.00
2023-04-15T04:12:31.033Z,94009.00
2023-04-15T04:13:31.105Z,94013.00
2023-04-15T04:14:31.087Z,94011.00
2023-04-15T04:15:31.180Z,94011.00
2023-04-15T04:16:31.186Z,94007.00
2023-04-15T04:17:31.202Z,94011.00
2023-04-15T04:18:31.225Z,94009.00
2023-04-15T04:19:31.268Z,94009.00
2023-04-15T04:20:31.291Z,94009.00
2023-04-15T04:21:31.310Z,94011.00
2023-04-15T04:22:31.366Z,94011.00
2023-04-15T04:23:31.386Z,94013.00
2023-04-15T04:24:31.391Z,94013.00
2023-04-15T04:25:31.440Z,94017.00
2023-04-15T04:26:31.479Z,94015.00
2023-04-15T04:27:31.505Z,94015.00
2023-04-15T04:28:31.538Z,94015.00
2023-04-15T04:29:31.569Z,94013.00
2023-04-15T04:30:31.574Z,94015.00
2023-04-15T04:31:31.622Z,94015.00
2023-04-15T04:32:31.633Z,94015.00
2023-04-15T04:33:31.662Z,94017.00
2023-04-15T04:34:31.678Z,94023.00
2023-04-15T04:35:31.704Z,94021.00
2023-04-15T04:36:31.703Z,94023.00
2023-04-15T04:37:31.740Z,94025.00
2023-04-15T04:38:31.770Z,94027.00
2023-04-15T04:39:31.802Z,94023.00
2023-04-15T04:40:31.819Z,94025.00
2023-04-15T04:41:31.859Z,94023.00
2023-04-15T04:42:31.870Z,94025.00
2023-04-15T04:43:31.934Z,94029.00
2023-04-15T04:44:31.924Z,94031.00
2023-04-15T04:45:32.010Z,94031.00
2023-04-15T04:46:31.997Z,94035.00
2023-04-15T04:47:32.028Z,94031.00
2023-04-15T04:48:32.054Z,94035.00
2023-04-15T04:49:32.085Z,94035.00
2023-04-15T04:50:32.094Z,94035.00
2023-04-15T04:51:32.113Z,94039.00
2023-04-15T04:52:32.175Z,94035.00
2023-04-15T04:53:32.208Z,94035.00
2023-04-15T04:54:32.205Z,94035.00
2023-04-15T04:55:32.273Z,94037.00
2023-04-15T04:56:32.277Z,94039.00
2023-04-15T04:57:32.329Z,94037.00
2023-04-15T04:58:32.344Z,94033.00
2023-04-15T04:59:32.348Z,94033.00
2023-04-15T05:00:32.362Z,94033.00
2023-04-15T05:01:32.464Z,94033.00
2023-04-15T05:02:32.570Z,94035.00
2023-04-15T05:03:32.496Z,94037.00
2023-04-15T05:04:32.476Z,94039.00
2023-04-15T05:05:32.505Z,94039.00
2023-04-15T05:06:32.540Z,94039.00
2023-04-15T05:07:32.565Z,94039.00
2023-04-15T05:08:32.565Z,94043.00
2023-04-15T05:09:32.588Z,94037.00
2023-04-15T05:10:32.623Z,94035.00
2023-04-15T05:11:32.670Z,94035.00
2023-04-15T05:12:32.666Z,94037.00
2023-04-15T05:13:32.700Z,94035.00
2023-04-15T05:14:32.724Z,94035.00
2023-04-15T05:15:32.754Z,94035.00
2023-04-15T05:16:32.823Z,94035.00
2023-04-15T05:17:32.833Z,94037.00
2023-04-15T05:18:32.844Z,94035.00
2023-04-15T05:19:32.855Z,94035.00
2023-04-15T05:20:32.865Z,94033.00
2023-04-15T05:21:32.902Z,94037.00
2023-04-15T05:22:32.923Z,94037.00
2023-04-15T05:23:32.965Z,94037.00
2023-04-15T05:24:32.965Z,94035.00
2023-04-15T05:25:33.004Z,94035.00
2023-04-15T05:26:33.015Z,94037.00
2023-04-15T05:27:33.046Z,94037.00
2023-04-15T05:28:33.113Z,94037.00
2023-04-15T05:29:33.115Z,94039.00
2023-04-15T05:30:33.156Z,94039.00
2023-04-15T05:31:33.174Z,94039.00
2023-04-15T05:32:33.252Z,94043.00
2023-04-15T05:33:33.221Z,94043.00
2023-04-15T05:34:33.220Z,94043.00
2023-04-15T05:35:33.276Z,94045.00
2023-04-15T05:36:33.293Z,94046.00
2023-04-15T05:37:33.325Z,94048.00
2023-04-15T05:38:33.353Z,94046.00
2023-04-15T05:39:33.370Z,94048.00
2023-04-15T05:40:33.399Z,94046.00
2023-04-15T05:41:33.420Z,94050.00
2023-04-15T05:42:33.453Z,94048.00
2023-04-15T05:43:33.432Z,94048.00
2023-04-15T05:44:33.449Z,94048.00
2023-04-15T05:45:33.487Z,94050.00
2023-04-15T05:46:33.587Z,94048.00
2023-04-15T05:47:33.628Z,94048.00
2023-04-15T05:48:33.562Z,94048.00
2023-04-15T05:49:33.582Z,94046.00
2023-04-15T05:50:33.587Z,94050.00
2023-04-15T05:51:33.623Z,94050.00
2023-04-15T05:52:33.627Z,94052.00
2023-04-15T05:53:33.696Z,94054.00
2023-04-15T05:54:33.666Z,94054.00
2023-04-15T05:55:33.723Z,94056.00
2023-04-15T05:56:33.730Z,94058.00
2023-04-15T05:57:33.780Z,94058.00
2023-04-15T05:58:33.784Z,94058.00
2023-04-15T05:59:33.785Z,94054.00
2023-04-15T06:00:33.821Z,94054.00
2023-04-15T06:01:33.863Z,94058.00
2023-04-15T06:02:33.950Z,94060.00
2023-04-15T06:03:34.010Z,94066.00
2023-04-15T06:04:34.068Z,94066.00
2023-04-15T06:05:33.943Z,94064.00
2023-04-15T06:06:33.940Z,94070.00
2023-04-15T06:07:33.984Z,94070.00
2023-04-15T06:08:33.992Z,94072.00
2023-04-15T06:09:34.010Z,94072.00
2023-04-15T06:10:34.011Z,94068.00
2023-04-15T06:11:34.062Z,94072.00
2023-04-15T06:12:34.087Z,94072.00
2023-04-15T06:13:34.088Z,94068.00
2023-04-15T06:14:34.097Z,94068.00
2023-04-15T06:15:34.142Z,94068.00
2023-04-15T06:16:34.193Z,94066.00
2023-04-15T06:17:34.209Z,94064.00
2023-04-15T06:18:34.223Z,94062.00
2023-04-15T06:19:34.226Z,94060.00
2023-04-15T06:20:34.259Z,94058.00
2023-04-15T06:21:34.258Z,94058.00
2023-04-15T06:22:34.291Z,94058.00
2023-04-15T06:23:34.314Z,94062.00
2023-04-15T06:24:34.339Z,94062.00
2023-04-15T06:25:34.330Z,94056.00
2023-04-15T06:26:34.357Z,94056.00
2023-04-15T06:27:34.414Z,94056.00
2023-04-15T06:28:34.420Z,94060.00
2023-04-15T06:29:34.426Z,94056.00
2023-04-15T06:30:34.479Z,94056.00
2023-04-15T06:31:34.539Z,94058.00
2023-04-15T06:32:34.587Z,94058.00
2023-04-15T06:33:34.528Z,94058.00
2023-04-15T06:34:34.569Z,94056.00
2023-04-15T06:35:34.576Z,94064.00
2023-04-15T06:36:34.603Z,94062.00
2023-04-15T06:37:34.643Z,94064.00
2023-04-15T06:38:34.669Z,94066.00
2023-04-15T06:39:34.679Z,94064.00
2023-04-15T06:40:34.698Z,94066.00
2023-04-15T06:41:34.736Z,94066.00
2023-04-15T06:42:34.767Z,94064.00
2023-04-15T06:43:34.772Z,94062.00
2023-04-15T06:44:34.794Z,94062.00
2023-04-15T06:45:34.852Z,94064.00
2023-04-15T06:46:34.880Z,94064.00
2023-04-15T06:47:34.892Z,94060.00
2023-04-15T06:48:34.905Z,94064.00
2023-04-15T06:49:34.921Z,94062.00
2023-04-15T06:50:34.923Z,94058.00
2023-04-15T06:51:34.953Z,94060.00
2023-04-15T06:52:35.008Z,94062.00
2023-04-15T06:53:34.989Z,94060.00
2023-04-15T06:54:35.040Z,94064.00
2023-04-15T06:55:35.057Z,94062.00
2023-04-15T06:56:35.075Z,94062.00
2023-04-15T06:57:35.290Z,94062.00
2023-04-15T06:58:35.126Z,94062.00
2023-04-15T06:59:35.161Z,94062.00
2023-04-15T07:00:35.182Z,94062.00
2023-04-15T07:01:35.245Z,94060.00
2023-04-15T07:02:35.316Z,94060.00
2023-04-15T07:03:35.225Z,94058.00
2023-04-15T07:04:35.304Z,94058.00
2023-04-15T07:05:35.267Z,94056.00
2023-04-15T07:06:35.280Z,94056.00
2023-04-15T07:07:35.289Z,94054.00
2023-04-15T07:08:35.313Z,94052.00
2023-04-15T07:09:35.344Z,94052.00
2023-04-15T07:10:35.357Z,94052.00
2023-04-15T07:11:35.364Z,94052.00
2023-04-15T07:12:35.358Z,94056.00
2023-04-15T07:13:35.365Z,94056.00
2023-04-15T07:14:35.412Z,94058.00
2023-04-15T07:15:35.445Z,94056.00
2023-04-15T07:16:35.482Z,94054.00
2023-04-15T07:17:35.506Z,94058.00
2023-04-15T07:18:35.480Z,94060.00
2023-04-15T07:19:35.481Z,94060.00
2023-04-15T07:20:35.529Z,94058.00
2023-04-15T07:21:35.540Z,94060.00
2023-04-15T07:22:35.627Z,94058.00
2023-04-15T07:23:35.556Z,94060.00
2023-04-15T07:24:35.581Z,94058.00
2023-04-15T07:25:35.620Z,94058.00
2023-04-15T07:26:35.612Z,94058.00
2023-04-15T07:27:35.628Z,94056.00
2023-04-15T07:28:35.630Z,94054.00
2023-04-15T07:29:35.669Z,94054.00
2023-04-15T07:30:35.704Z,94052.00
2023-04-15T07:31:35.728Z,94050.00
2023-04-15T07:32:35.715Z,94050.00
2023-04-15T07:33:35.714Z,94050.00
2023-04-15T07:34:35.746Z,94050.00
2023-04-15T07:35:35.765Z,94050.00
2023-04-15T07:36:35.778Z,94050.00
2023-04-15T07:37:35.876Z,94052.00
2023-04-15T07:38:35.831Z,94052.00
2023-04-15T07:39:35.828Z,94050.00
2023-04-15T07:40:35.830Z,94050.00
2023-04-15T07:41:35.834Z,94048.00
2023-04-15T07:42:35.867Z,94046.00
2023-04-15T07:43:35.886Z,94045.00
2023-04-15T07:44:35.952Z,94043.00
2023-04-15T07:45:35.948Z,94043.00
2023-04-15T07:46:36.089Z,94043.00
2023-04-15T07:47:35.995Z,94041.00
2023-04-15T07:48:37.406Z,94039.00
2023-04-15T07:49:36.021Z,94039.00
2023-04-15T07:50:35.994Z,94039.00
2023-04-15T07:51:36.053Z,94041.00
2023-04-15T07:52:36.005Z,94041.00
2023-04-15T07:53:36.031Z,94041.00
2023-04-15T07:54:36.068Z,94039.00
2023-04-15T07:55:36.096Z,94039.00
2023-04-15T07:56:36.096Z,94037.00
2023-04-15T07:57:36.121Z,94035.00
2023-04-15T07:58:36.125Z,94035.00
2023-04-15T07:59:36.128Z,94033.00
2023-04-15T08:00:36.144Z,94031.00
2023-04-15T08:01:36.157Z,94029.00
2023-04-15T08:02:38.082Z,94031.00
2023-04-15T08:03:36.628Z,94033.00
2023-04-15T08:04:36.689Z,94033.00
2023-04-15T08:05:36.421Z,94033.00
2023-04-15T08:06:36.465Z,94033.00
2023-04-15T08:07:36.472Z,94031.00
2023-04-15T08:08:36.464Z,94033.00
2023-04-15T08:09:36.493Z,94033.00
2023-04-15T08:10:36.496Z,94033.00
2023-04-15T08:11:36.549Z,94031.00
2023-04-15T08:12:36.539Z,94031.00
2023-04-15T08:13:36.522Z,94037.00
2023-04-15T08:14:36.518Z,94035.00
2023-04-15T08:15:36.574Z,94037.00
2023-04-15T08:16:36.621Z,94035.00
2023-04-15T08:17:36.684Z,94033.00
2023-04-15T08:18:36.582Z,94031.00
2023-04-15T08:19:36.605Z,94031.00
2023-04-15T08:20:36.605Z,94029.00
2023-04-15T08:21:36.612Z,94029.00
2023-04-15T08:22:36.627Z,94033.00
2023-04-15T08:23:36.628Z,94031.00
2023-04-15T08:24:36.649Z,94029.00
2023-04-15T08:25:36.672Z,94029.00
2023-04-15T08:26:36.666Z,94029.00
2023-04-15T08:27:36.696Z,94027.00
2023-04-15T08:28:36.707Z,94027.00
2023-04-15T08:29:36.709Z,94025.00
2023-04-15T08:30:36.726Z,94031.00
2023-04-15T08:31:36.794Z,94027.00
2023-04-15T08:32:36.750Z,94025.00
2023-04-15T08:33:36.800Z,94027.00
2023-04-15T08:34:36.804Z,94025.00
2023-04-15T08:35:36.799Z,94025.00
2023-04-15T08:36:36.910Z,94025.00
2023-04-15T08:37:36.783Z,94025.00
2023-04-15T08:38:36.800Z,94023.00
2023-04-15T08:39:36.810Z,94027.00
2023-04-15T08:40:36.808Z,94023.00
2023-04-15T08:41:36.818Z,94025.00
2023-04-15T08:42:36.839Z,94025.00
2023-04-15T08:43:36.858Z,94025.00
2023-04-15T08:44:36.919Z,94023.00
2023-04-15T08:45:36.861Z,94023.00
2023-04-15T08:46:36.865Z,94021.00
2023-04-15T08:47:36.951Z,94019.00
2023-04-15T08:48:36.895Z,94019.00
2023-04-15T08:49:36.890Z,94017.00
2023-04-15T08:50:36.873Z,94017.00
2023-04-15T08:51:36.898Z,94015.00
2023-04-15T08:52:36.902Z,94013.00
2023-04-15T08:53:36.914Z,94013.00
2023-04-15T08:54:36.901Z,94011.00
2023-04-15T08:55:36.900Z,94013.00
2023-04-15T08:56:36.929Z,94013.00
2023-04-15T08:57:36.905Z,94013.00
2023-04-15T08:58:36.936Z,94015.00
2023-04-15T08:59:36.940Z,94017.00
2023-04-15T09:00:36.923Z,94015.00
2023-04-15T09:01:37.025Z,94013.00
2023-04-15T09:02:37.056Z,94013.00
2023-04-15T09:03:37.108Z,94011.00
2023-04-15T09:04:36.986Z,94011.00
2023-04-15T09:05:36.979Z,94009.00
2023-04-15T09:06:36.982Z,94007.00
2023-04-15T09:07:37.006Z,94011.00
2023-04-15T09:08:37.005Z,94007.00
2023-04-15T09:09:37.005Z,94007.00
2023-04-15T09:10:37.055Z,94007.00
2023-04-15T09:11:37.065Z,94009.00
2023-04-15T09:12:37.038Z,94007.00
2023-04-15T09:13:37.051Z,94007.00
2023-04-15T09:14:37.097Z,94005.00
2023-04-15T09:15:37.026Z,94005.00
2023-04-15T09:16:37.090Z,94003.00
2023-04-15T09:17:37.144Z,94005.00
2023-04-15T09:18:37.062Z,94003.00
2023-04-15T09:19:37.083Z,94003.00
2023-04-15T09:20:37.080Z,93999.00
2023-04-15T09:21:37.090Z,94001.00
2023-04-15T09:22:37.112Z,94001.00
2023-04-15T09:23:37.093Z,94003.00
2023-04-15T09:24:37.124Z,94001.00
2023-04-15T09:25:37.152Z,94003.00
2023-04-15T09:26:37.204Z,94001.00
2023-04-15T09:27:37.249Z,94001.00
2023-04-15T09:28:37.281Z,93999.00
2023-04-15T09:29:37.404Z,94001.00
2023-04-15T09:30:37.372Z,93997.00
2023-04-15T09:31:37.336Z,93997.00
2023-04-15T09:32:37.382Z,93995.00
2023-04-15T09:33:37.376Z,93995.00
2023-04-15T09:34:37.424Z,93997.00
2023-04-15T09:35:37.430Z,93997.00
2023-04-15T09:36:37.470Z,93993.00
2023-04-15T09:37:37.539Z,93997.00
2023-04-15T09:38:37.621Z,93995.00
2023-04-15T09:39:37.658Z,93993.00
2023-04-15T09:40:37.722Z,93995.00
2023-04-15T09:41:37.777Z,93997.00
2023-04-15T09:42:37.870Z,93995.00
2023-04-15T09:43:37.893Z,93995.00
2023-04-15T09:44:37.971Z,93995.00
2023-04-15T09:45:38.013Z,93995.00
2023-04-15T09:46:38.142Z,93995.00
2023-04-15T09:47:38.149Z,93993.00
2023-04-15T09:48:38.171Z,93993.00
2023-04-15T09:49:38.310Z,93991.00
2023-04-15T09:50:38.316Z,93988.00
2023-04-15T09:51:38.398Z,93986.00
2023-04-15T09:52:38.402Z,93986.00
2023-04-15T09:53:38.457Z,93990.00
2023-04-15T09:54:38.622Z,93991.00
2023-04-15T09:55:38.615Z,93990.00
2023-04-15T09:56:38.664Z,93986.00
2023-04-15T09:57:38.719Z,93990.00
2023-04-15T09:58:38.784Z,93986.00
2023-04-15T09:59:38.844Z,93986.00
2023-04-15T10:00:38.889Z,93986.00
2023-04-15T10:01:39.017Z,93986.00
2023-04-15T10:02:39.102Z,93986.00
2023-04-15T10:03:39.169Z,93986.00
2023-04-15T10:04:39.098Z,93984.00
2023-04-15T10:05:39.153Z,93984.00
2023-04-15T10:06:39.220Z,93984.00
2023-04-15T10:07:39.289Z,93986.00
2023-04-15T10:08:39.319Z,93982.00
2023-04-15T10:09:39.406Z,93984.00
2023-04-15T10:10:39.413Z,93982.00
2023-04-15T10:11:39.490Z,93982.00
2023-04-15T10:12:39.547Z,93982.00
2023-04-15T10:13:39.599Z,93984.00
2023-04-15T10:14:39.630Z,93982.00
2023-04-15T10:15:39.715Z,93986.00
2023-04-15T10:16:39.776Z,93984.00
2023-04-15T10:17:39.824Z,93984.00
2023-04-15T10:18:39.844Z,93984.00
2023-04-15T10:19:39.942Z,93986.00
2023-04-15T10:20:40.037Z,93982.00
2023-04-15T10:21:40.148Z,93986.00
2023-04-15T10:22:40.130Z,93984.00
2023-04-15T10:23:40.160Z,93986.00
2023-04-15T10:24:40.231Z,93984.00
2023-04-15T10:25:40.289Z,93984.00
2023-04-15T10:26:40.365Z,93986.00
2023-04-15T10:27:40.441Z,93986.00
2023-04-15T10:28:40.516Z,93986.00
2023-04-15T10:29:40.562Z,93986.00
2023-04-15T10:30:40.597Z,93984.00
2023-04-15T10:31:40.724Z,93986.00
2023-04-15T10:32:40.727Z,93986.00
2023-04-15T10:33:40.777Z,93984.00
2023-04-15T10:34:40.823Z,93988.00
2023-04-15T10:35:40.889Z,93988.00
2023-04-15T10:36:40.965Z,93986.00
2023-04-15T10:37:41.007Z,93991.00
2023-04-15T10:38:41.078Z,93988.00
2023-04-15T10:39:41.169Z,93988.00
2023-04-15T10:40:41.227Z,93991.00
2023-04-15T10:41:41.265Z,93990.00
2023-04-15T10:42:41.342Z,93990.00
2023-04-15T10:43:41.429Z,93990.00
2023-04-15T10:44:41.470Z,93990.00
2023-04-15T10:45:41.519Z,93991.00
2023-04-15T10:46:41.637Z,93990.00
2023-04-15T10:47:41.717Z,93991.00
2023-04-15T10:48:41.750Z,93991.00
2023-04-15T10:49:41.834Z,93988.00
2023-04-15T10:50:41.885Z,93990.00
2023-04-15T10:51:41.970Z,93988.00
2023-04-15T10:52:42.037Z,93988.00
2023-04-15T10:53:42.069Z,93988.00
2023-04-15T10:54:42.163Z,93990.00
2023-04-15T10:55:42.218Z,93990.00
2023-04-15T10:56:42.270Z,93988.00
2023-04-15T10:57:42.389Z,93986.00
2023-04-15T10:58:42.460Z,93986.00
2023-04-15T10:59:42.503Z,93988.00
2023-04-15T11:00:42.551Z,93988.00
2023-04-15T11:01:42.660Z,93988.00
2023-04-15T11:02:42.844Z,93988.00
2023-04-15T11:03:42.953Z,93988.00
2023-04-15T11:04:43.206Z,93990.00
2023-04-15T11:05:42.936Z,93988.00
2023-04-15T11:06:42.940Z,93988.00
2023-04-15T11:07:42.991Z,93986.00
2023-04-15T11:08:43.056Z,93988.00
2023-04-15T11:09:43.141Z,93984.00
2023-04-15T11:10:43.202Z,93982.00
2023-04-15T11:11:44.376Z,93984.00
2023-04-15T11:12:43.343Z,93984.00
2023-04-15T11:13:43.376Z,93984.00
2023-04-15T11:14:43.524Z,93980.00
2023-04-15T11:15:43.524Z,93980.00
2023-04-15T11:16:43.624Z,93978.00
2023-04-15T11:17:45.313Z,93976.00
2023-04-15T11:18:43.676Z,93972.00
2023-04-15T11:19:43.674Z,93976.00
2023-04-15T11:20:43.695Z,93976.00
2023-04-15T11:21:43.672Z,93980.00
2023-04-15T11:22:43.672Z,93982.00
2023-04-15T11:23:43.672Z,93982.00
2023-04-15T11:24:43.670Z,93986.00
2023-04-15T11:25:43.869Z,93980.00
2023-04-15T11:26:43.685Z,93982.00
2023-04-15T11:27:43.669Z,93980.00
2023-04-15T11:28:43.702Z,93988.00
2023-04-15T11:29:43.693Z,93978.00
2023-04-15T11:30:43.717Z,93984.00
2023-04-15T11:31:43.710Z,93980.00
2023-04-15T11:32:43.708Z,93984.00
2023-04-15T11:33:43.680Z,93986.00
2023-04-15T11:34:43.652Z,93988.00
2023-04-15T11:35:43.659Z,93991.00
2023-04-15T11:36:43.656Z,93986.00
2023-04-15T11:37:43.635Z,93988.00
2023-04-15T11:38:43.637Z,93986.00
2023-04-15T11:39:43.630Z,93982.00
2023-04-15T11:40:46.188Z,93984.00
2023-04-15T11:41:43.615Z,93986.00
2023-04-15T11:42:49.716Z,93984.00
2023-04-15T11:43:44.601Z,93982.00
2023-04-15T11:44:43.635Z,93982.00